Time;durP1;ratioP1;P1;durP2;ratioP2;P2;SDS_P1;SDS_P2;PMS_P1;PMS_P2;Temp;Humidity;BMP_temperature;BMP_pressure;BME280_temperature;BME280_humidity;BME280_pressure;Samples;Min_cycle;Max_cycle;Signal;HPM_P1;HPM_P2
2022/08/18 00:01:15;;;;;;;32.97;12.48;;;17.60;99.90;;;;;;5025781;28;20038;-39
2022/08/18 00:03:43;;;;;;;33.70;12.70;;;17.30;99.90;;;;;;5026090;28;20059;-39
2022/08/18 00:06:09;;;;;;;42.67;13.90;;;17.30;99.90;;;;;;5026057;28;20049;-39
2022/08/18 00:08:34;;;;;;;40.35;14.77;;;17.30;99.90;;;;;;5025857;28;20491;-39
2022/08/18 00:11:00;;;;;;;47.50;15.52;;;17.20;99.90;;;;;;5025694;28;20620;-38
2022/08/18 00:13:26;;;;;;;29.40;11.73;;;17.20;99.90;;;;;;5025777;28;20116;-40
2022/08/18 00:15:52;;;;;;;46.35;14.88;;;17.50;99.90;;;;;;5026152;28;20080;-39
2022/08/18 00:18:18;;;;;;;35.03;13.60;;;17.20;99.90;;;;;;5025670;28;20087;-39
2022/08/18 00:20:44;;;;;;;41.95;14.05;;;17.10;99.90;;;;;;5025809;28;20399;-39
2022/08/18 00:23:10;;;;;;;38.75;12.93;;;17.10;99.90;;;;;;5024500;28;20033;-39
2022/08/18 00:25:36;;;;;;;37.83;13.23;;;17.10;99.90;;;;;;5023909;28;20602;-39
2022/08/18 00:28:03;;;;;;;48.47;13.55;;;17.00;99.90;;;;;;5023061;28;20432;-39
2022/08/18 00:30:29;;;;;;;33.15;11.95;;;16.90;99.90;;;;;;5022684;28;20107;-39
2022/08/18 00:32:57;;;;;;;26.23;11.25;;;16.80;99.90;;;;;;5025438;28;20042;-38
2022/08/18 00:35:31;;;;;;;46.08;14.80;;;16.80;99.90;;;;;;5025580;28;20052;-40
2022/08/18 00:38:00;;;;;;;38.60;12.98;;;16.70;99.90;;;;;;5028077;28;20480;-39
2022/08/18 00:40:29;;;;;;;30.88;10.93;;;16.70;99.90;;;;;;5029209;28;20369;-39
2022/08/18 00:43:00;;;;;;;26.63;11.38;;;16.60;99.90;;;;;;5029006;28;20045;-38
2022/08/18 00:45:32;;;;;;;30.27;12.52;;;16.50;99.90;;;;;;5029094;28;20052;-39
2022/08/18 00:47:59;;;;;;;;;;;16.50;99.90;;;;;;5029500;28;20092;-36
2022/08/18 00:50:36;;;;;;;36.63;14.10;;;16.50;99.90;;;;;;5028868;28;19917;-39
2022/08/18 00:53:07;;;;;;;36.88;14.15;;;16.40;99.90;;;;;;5029111;28;20045;-40
2022/08/18 00:55:34;;;;;;;40.85;13.45;;;16.30;99.90;;;;;;5029302;28;20526;-39
2022/08/18 00:58:08;;;;;;;40.28;13.73;;;16.20;99.90;;;;;;5029146;28;20068;-37
2022/08/18 01:00:34;;;;;;;43.67;13.90;;;16.30;99.90;;;;;;5011609;28;20049;-40
2022/08/18 01:03:04;;;;;;;53.60;17.55;;;16.30;99.90;;;;;;5029275;28;20041;-39
2022/08/18 01:05:42;;;;;;;55.53;18.27;;;16.40;99.90;;;;;;5029097;28;20095;-39
2022/08/18 01:08:13;;;;;;;24.15;12.85;;;16.70;99.90;;;;;;5029473;28;20108;-38
2022/08/18 01:10:40;;;;;;;49.22;16.60;;;16.50;99.90;;;;;;5028931;28;20061;-39
2022/08/18 01:13:07;;;;;;;38.42;14.70;;;16.60;99.90;;;;;;5010405;28;20058;-39
2022/08/18 01:15:33;;;;;;;59.75;18.40;;;16.50;99.90;;;;;;5028506;28;20348;-38
2022/08/18 01:23:37;;;;;;;50.13;17.63;;;16.70;99.90;;;;;;5028436;28;20059;-39
2022/08/18 01:26:03;;;;;;;57.25;17.88;;;16.70;99.90;;;;;;5028396;28;20491;-39
2022/08/18 01:28:39;;;;;;;57.28;18.02;;;16.80;99.90;;;;;;5028097;28;20046;-39
2022/08/18 01:31:06;;;;;;;60.33;18.40;;;16.80;99.90;;;;;;5028464;28;20100;-39
2022/08/18 01:33:38;;;;;;;70.63;20.92;;;16.80;99.90;;;;;;5027970;28;20677;-38
2022/08/18 01:36:17;;;;;;;48.30;18.00;;;16.80;99.90;;;;;;5028230;28;20033;-39
2022/08/18 01:38:45;;;;;;;47.33;15.85;;;16.80;99.90;;;;;;5027796;28;20542;-39
2022/08/18 01:41:11;;;;;;;50.60;16.50;;;16.70;99.90;;;;;;5027896;28;20047;-39
2022/08/18 01:43:37;;;;;;;50.25;16.13;;;16.60;99.90;;;;;;5027540;28;20045;-38
2022/08/18 01:46:05;;;;;;;47.53;17.20;;;16.70;99.90;;;;;;5027696;28;20148;-39
2022/08/18 01:48:33;;;;;;;38.65;15.88;;;16.50;99.90;;;;;;5026323;28;20038;-39
2022/08/18 01:51:00;;;;;;;55.60;17.77;;;16.50;99.90;;;;;;5027918;28;20120;-40
2022/08/18 01:53:26;;;;;;;30.35;13.52;;;16.30;99.90;;;;;;5027493;28;20046;-40
2022/08/18 01:55:52;;;;;;;29.67;13.70;;;16.30;99.90;;;;;;5027824;28;20492;-40
2022/08/18 01:58:18;;;;;;;44.55;14.45;;;16.30;99.90;;;;;;5009863;28;20168;-40
2022/08/18 02:00:43;;;;;;;35.42;14.35;;;16.20;99.90;;;;;;5027932;28;20467;-38
2022/08/18 02:03:13;;;;;;;57.05;16.73;;;16.20;99.90;;;;;;5027658;28;20049;-39
2022/08/18 02:05:43;;;;;;;51.90;16.02;;;16.20;99.90;;;;;;5027786;28;20049;-39
2022/08/18 02:08:11;;;;;;;44.45;16.30;;;16.10;99.90;;;;;;5027715;28;20486;-40
2022/08/18 02:10:38;;;;;;;46.25;15.57;;;16.20;99.90;;;;;;5027264;28;20053;-39
2022/08/18 02:13:04;;;;;;;34.83;14.60;;;16.00;99.90;;;;;;5027372;28;20064;-39
2022/08/18 02:15:30;;;;;;;37.97;14.50;;;16.00;99.90;;;;;;5009720;28;20172;-40
2022/08/18 02:17:56;;;;;;;44.58;16.95;;;16.20;99.90;;;;;;5027166;28;20547;-39
2022/08/18 02:20:22;;;;;;;45.80;16.50;;;16.00;99.90;;;;;;5027391;28;20041;-39
2022/08/18 02:22:49;;;;;;;45.40;17.08;;;16.10;99.90;;;;;;5027879;28;20475;-39
2022/08/18 02:25:16;;;;;;;35.55;16.02;;;16.10;99.90;;;;;;5027605;28;20160;-40
2022/08/18 02:27:43;;;;;;;41.85;16.10;;;16.20;99.90;;;;;;5027146;28;20444;-39
2022/08/18 02:30:13;;;;;;;51.72;18.27;;;16.20;99.90;;;;;;5027295;28;20159;-40
2022/08/18 02:32:39;;;;;;;60.08;19.73;;;16.30;99.90;;;;;;5026834;28;20682;-39
2022/08/18 02:35:06;;;;;;;53.72;18.25;;;16.50;99.90;;;;;;5027420;28;20167;-39
2022/08/18 02:37:32;;;;;;;45.05;18.63;;;16.40;99.90;;;;;;5027460;28;20040;-39
2022/08/18 02:39:58;;;;;;;45.95;19.00;;;16.40;99.90;;;;;;5028050;28;20383;-39
2022/08/18 02:42:24;;;;;;;47.25;20.83;;;16.60;99.90;;;;;;5027531;28;20479;-40
2022/08/18 02:44:50;;;;;;;53.88;20.60;;;16.50;99.90;;;;;;5027471;28;20171;-38
2022/08/18 02:47:20;;;;;;;55.35;21.00;;;16.50;99.90;;;;;;5027165;28;20088;-37
2022/08/18 02:49:46;;;;;;;70.35;23.13;;;16.60;99.90;;;;;;5008835;28;20126;-38
2022/08/18 02:52:12;;;;;;;61.75;21.55;;;16.70;99.90;;;;;;5009089;28;20045;-37
2022/08/18 02:54:38;;;;;;;69.57;24.67;;;16.70;99.90;;;;;;5026874;28;20102;-40
2022/08/18 02:57:08;;;;;;;76.88;24.77;;;16.80;99.90;;;;;;5026831;28;20060;-38
2022/08/18 02:59:36;;;;;;;62.45;22.15;;;16.80;99.90;;;;;;5026325;28;20080;-39
2022/08/18 03:02:01;;;;;;;62.53;21.77;;;16.80;99.90;;;;;;5026944;28;20095;-39
2022/08/18 03:04:30;;;;;;;65.90;23.38;;;16.80;99.90;;;;;;5026693;28;20518;-39
2022/08/18 03:07:00;;;;;;;88.47;25.20;;;16.90;99.90;;;;;;5026441;28;20488;-38
2022/08/18 03:09:26;;;;;;;70.28;22.58;;;16.90;99.90;;;;;;5026253;28;20144;-39
2022/08/18 03:11:53;;;;;;;57.20;21.98;;;17.00;99.90;;;;;;5026180;28;20503;-39
2022/08/18 03:14:19;;;;;;;57.45;20.20;;;17.00;99.90;;;;;;5026562;28;20395;-39
2022/08/18 03:16:47;;;;;;;84.82;24.67;;;17.10;99.90;;;;;;5026108;28;20360;-39
2022/08/18 03:19:15;;;;;;;74.93;24.15;;;17.00;99.90;;;;;;5026295;28;20041;-38
2022/08/18 03:21:41;;;;;;;78.10;22.67;;;17.10;99.90;;;;;;5026291;28;20081;-39
2022/08/18 03:24:07;;;;;;;65.38;23.30;;;17.10;99.90;;;;;;5026481;28;20495;-39
2022/08/18 03:26:33;;;;;;;69.45;22.05;;;17.10;99.90;;;;;;5026251;28;20049;-39
2022/08/18 03:28:59;;;;;;;64.18;21.02;;;17.10;99.90;;;;;;5026469;28;20037;-40
2022/08/18 03:31:28;;;;;;;45.08;19.35;;;17.10;99.90;;;;;;5026091;28;20045;-39
2022/08/18 03:33:54;;;;;;;58.08;20.83;;;17.10;99.90;;;;;;5025947;28;20044;-38
2022/08/18 03:36:24;;;;;;;68.18;22.23;;;17.10;99.90;;;;;;5026186;28;20041;-39
2022/08/18 03:38:52;;;;;;;58.35;22.40;;;17.20;99.90;;;;;;5025791;28;20059;-37
2022/08/18 03:41:24;;;;;;;58.63;20.20;;;17.20;99.90;;;;;;5025765;28;20085;-39
2022/08/18 03:43:51;;;;;;;72.15;22.75;;;17.20;99.90;;;;;;5025710;28;20053;-39
2022/08/18 03:46:18;;;;;;;71.68;22.88;;;17.20;99.90;;;;;;5026275;28;20045;-39
2022/08/18 03:48:46;;;;;;;69.07;22.33;;;17.20;99.90;;;;;;5025630;28;20049;-39
2022/08/18 03:51:17;;;;;;;63.10;21.63;;;17.10;99.90;;;;;;5025756;28;20053;-39
2022/08/18 03:53:44;;;;;;;71.35;21.95;;;17.10;99.90;;;;;;5025974;28;20071;-36
2022/08/18 03:56:15;;;;;;;60.72;20.20;;;17.00;99.90;;;;;;5025795;28;20048;-39
2022/08/18 03:58:44;;;;;;;55.38;19.95;;;17.10;99.90;;;;;;5025547;28;20499;-39
2022/08/18 04:01:14;;;;;;;35.05;16.27;;;17.10;99.90;;;;;;5025990;28;20468;-37
2022/08/18 04:03:41;;;;;;;33.95;16.00;;;17.10;99.90;;;;;;5025531;28;20049;-37
2022/08/18 04:06:07;;;;;;;40.40;17.55;;;17.20;99.90;;;;;;5026109;28;20045;-39
2022/08/18 04:08:32;;;;;;;68.50;21.33;;;17.20;99.90;;;;;;5025549;28;20056;-39
2022/08/18 04:10:58;;;;;;;54.95;20.38;;;16.90;99.90;;;;;;5025536;28;20066;-39
2022/08/18 04:13:24;;;;;;;66.10;20.98;;;17.20;99.90;;;;;;5029058;28;20519;-37
2022/08/18 04:15:49;;;;;;;51.22;18.23;;;17.30;99.90;;;;;;5029733;28;20069;-40
2022/08/18 04:18:15;;;;;;;80.35;22.38;;;17.30;99.90;;;;;;5029849;28;20052;-40
2022/08/18 04:20:41;;;;;;;65.80;21.02;;;17.30;99.90;;;;;;5029629;28;20491;-37
2022/08/18 04:23:06;;;;;;;57.83;21.27;;;17.30;99.90;;;;;;4995675;28;20049;-39
2022/08/18 04:25:32;;;;;;;61.17;21.20;;;17.40;99.90;;;;;;5029813;28;20049;-39
2022/08/18 04:28:00;;;;;;;68.10;22.50;;;17.30;99.90;;;;;;5030374;28;20539;-39
2022/08/18 04:30:27;;;;;;;64.57;22.17;;;17.30;99.90;;;;;;5030010;28;20053;-39
2022/08/18 04:32:53;;;;;;;74.93;23.45;;;17.30;99.90;;;;;;5029410;28;20073;-38
2022/08/18 04:35:19;;;;;;;66.22;22.83;;;17.50;99.90;;;;;;5029469;28;20114;-38
2022/08/18 04:37:45;;;;;;;71.50;24.25;;;17.30;99.90;;;;;;5029230;28;20048;-38
2022/08/18 04:40:13;;;;;;;78.40;24.55;;;17.30;99.90;;;;;;5029739;28;20168;-38
2022/08/18 04:42:39;;;;;;;68.45;23.02;;;17.20;99.90;;;;;;5029598;28;20049;-38
2022/08/18 04:45:06;;;;;;;74.10;23.77;;;17.20;99.90;;;;;;5029684;28;20487;-40
2022/08/18 04:47:31;;;;;;;69.05;22.77;;;17.20;99.90;;;;;;5029397;28;20108;-38
2022/08/18 04:49:57;;;;;;;86.70;25.20;;;17.30;99.90;;;;;;5029276;28;20440;-37
2022/08/18 04:55:08;;;;;;;65.47;22.83;;;17.30;99.90;;;;;;5028999;28;20119;-39
2022/08/18 04:57:34;;;;;;;65.10;23.02;;;17.30;99.90;;;;;;5011089;28;20045;-39
2022/08/18 05:00:00;;;;;;;84.43;25.17;;;17.30;99.90;;;;;;5028781;28;20048;-39
2022/08/18 05:02:26;;;;;;;76.18;23.00;;;17.30;99.90;;;;;;5029250;28;20499;-39
2022/08/18 05:04:51;;;;;;;76.38;23.60;;;17.30;99.90;;;;;;5028841;28;20046;-40
2022/08/18 05:07:21;;;;;;;69.38;25.13;;;17.30;99.90;;;;;;5029521;28;20041;-39
2022/08/18 05:09:47;;;;;;;69.72;25.13;;;17.40;99.90;;;;;;5028641;28;20053;-38
2022/08/18 05:12:14;;;;;;;83.22;27.58;;;17.40;99.90;;;;;;5028826;28;20160;-39
2022/08/18 05:14:43;;;;;;;74.38;25.85;;;17.40;99.90;;;;;;5028706;28;20104;-39
2022/08/18 05:17:10;;;;;;;82.38;27.23;;;17.30;99.90;;;;;;5029197;28;20037;-39
2022/08/18 05:19:36;;;;;;;84.43;27.75;;;17.50;99.90;;;;;;5029021;28;20080;-37
2022/08/18 05:22:02;;;;;;;78.15;26.48;;;17.50;99.90;;;;;;5029147;28;20060;-38
2022/08/18 05:24:31;;;;;;;73.75;26.00;;;17.50;99.90;;;;;;5028544;28;20052;-39
2022/08/18 05:26:57;;;;;;;74.10;25.85;;;17.50;99.90;;;;;;5028515;28;20454;-38
2022/08/18 05:29:23;;;;;;;76.70;25.95;;;17.50;99.90;;;;;;5027841;28;20037;-39
2022/08/18 05:31:50;;;;;;;63.70;23.38;;;17.50;99.90;;;;;;5016067;28;20126;-39
2022/08/18 05:34:19;;;;;;;61.88;22.92;;;17.50;99.90;;;;;;5028315;28;20053;-38
2022/08/18 05:36:48;;;;;;;63.10;23.58;;;17.50;99.90;;;;;;5028511;28;20450;-37
2022/08/18 05:39:16;;;;;;;49.22;22.63;;;17.50;99.90;;;;;;5028309;28;20446;-39
2022/08/18 05:41:45;;;;;;;58.47;22.25;;;17.50;99.90;;;;;;5028277;28;20124;-39
2022/08/18 05:44:20;;;;;;;55.75;21.98;;;17.60;99.90;;;;;;5027667;28;20458;-39
2022/08/18 05:47:21;;;;;;;59.35;22.42;;;17.50;99.90;;;;;;5026402;28;20057;-38
2022/08/18 05:49:48;;;;;;;66.30;22.30;;;17.60;99.90;;;;;;5005364;28;20492;-39
2022/08/18 05:52:37;;;;;;;55.30;21.85;;;17.60;99.90;;;;;;5027568;28;20053;-41
2022/08/18 05:58:13;;;;;;;57.58;22.08;;;17.60;99.90;;;;;;5025619;28;20461;-38
2022/08/18 06:00:42;;;;;;;55.25;22.10;;;17.70;99.90;;;;;;5026074;28;20160;-39
2022/08/18 06:03:16;;;;;;;45.75;21.08;;;17.80;99.90;;;;;;5027554;28;20040;-39
2022/08/18 06:06:00;;;;;;;50.40;21.60;;;17.80;99.90;;;;;;5026831;28;20041;-39
2022/08/18 06:08:37;;;;;;;56.25;21.83;;;17.80;99.90;;;;;;5027100;28;20051;-39
2022/08/18 06:11:03;;;;;;;51.15;21.42;;;17.90;99.90;;;;;;5026642;28;20057;-39
2022/08/18 06:13:35;;;;;;;45.45;18.58;;;18.00;99.90;;;;;;5027147;28;20447;-38
2022/08/18 06:16:19;;;;;;;42.05;20.13;;;18.10;99.90;;;;;;5027563;28;20030;-39
2022/08/18 06:19:07;;;;;;;40.70;18.50;;;18.20;99.90;;;;;;5026613;28;20037;-38
2022/08/18 06:21:56;;;;;;;54.83;21.65;;;18.20;99.90;;;;;;5024649;28;20550;-38
2022/08/18 06:24:41;;;;;;;38.92;18.70;;;19.50;99.90;;;;;;5026069;28;20312;-38
2022/08/18 06:27:12;;;;;;;38.38;19.23;;;18.30;99.90;;;;;;5026550;28;20048;-38
2022/08/18 06:29:57;;;;;;;37.42;18.52;;;18.40;99.90;;;;;;5026858;28;20422;-39
2022/08/18 06:32:44;;;;;;;34.42;20.17;;;18.40;99.90;;;;;;5025612;28;20087;-39
2022/08/18 06:35:27;;;;;;;41.05;20.42;;;18.50;99.90;;;;;;5025994;28;20446;-39
2022/08/18 06:40:48;;;;;;;37.33;18.90;;;18.50;99.90;;;;;;5025999;28;20541;-48
2022/08/18 06:43:15;;;;;;;36.42;19.55;;;18.50;99.90;;;;;;5026549;28;20843;-40
2022/08/18 06:45:44;;;;;;;33.38;18.20;;;18.60;99.90;;;;;;5026550;28;20045;-40
2022/08/18 06:48:29;;;;;;;33.25;18.25;;;18.60;99.90;;;;;;5026507;28;20057;-41
2022/08/18 06:51:00;;;;;;;35.58;18.48;;;18.80;99.90;;;;;;5024450;28;20046;-41
2022/08/18 06:53:53;;;;;;;30.85;18.75;;;18.70;99.90;;;;;;5026455;28;20442;-40
2022/08/18 06:56:20;;;;;;;34.72;19.63;;;18.70;99.90;;;;;;5022495;28;20517;-41
2022/08/18 06:58:46;;;;;;;35.40;19.73;;;18.80;99.90;;;;;;5026465;28;20388;-40
2022/08/18 07:01:12;;;;;;;37.55;18.25;;;18.80;99.90;;;;;;5027086;28;20456;-39
2022/08/18 07:03:42;;;;;;;26.52;16.25;;;18.80;99.90;;;;;;5026741;28;20046;-41
2022/08/18 07:06:34;;;;;;;28.70;18.13;;;18.80;99.90;;;;;;5023172;28;20038;-41
2022/08/18 07:09:22;;;;;;;28.73;16.92;;;18.80;99.90;;;;;;5024028;28;20053;-40
2022/08/18 07:12:07;;;;;;;26.58;16.35;;;18.80;99.90;;;;;;5025946;28;20507;-42
2022/08/18 07:14:43;;;;;;;27.52;16.65;;;18.80;99.90;;;;;;5019375;28;20111;-42
2022/08/18 07:17:12;;;;;;;26.15;13.35;;;18.80;99.90;;;;;;5023229;28;20364;-40
2022/08/18 07:19:39;;;;;;;20.05;13.52;;;18.70;99.90;;;;;;5026128;28;20033;-40
2022/08/18 07:22:17;;;;;;;26.60;13.75;;;18.70;99.90;;;;;;5025871;28;20480;-39
2022/08/18 07:24:46;;;;;;;19.63;13.13;;;18.60;99.90;;;;;;5025935;28;20107;-40
2022/08/18 07:27:21;;;;;;;25.48;14.05;;;18.70;99.90;;;;;;5025870;28;20286;-38
2022/08/18 07:30:09;;;;;;;27.20;15.48;;;18.70;99.90;;;;;;5024671;28;20049;-40
2022/08/18 07:32:55;;;;;;;26.13;14.10;;;18.70;99.90;;;;;;5025210;28;20510;-40
2022/08/18 07:35:26;;;;;;;20.70;13.35;;;18.70;99.90;;;;;;5015713;28;20368;-38
2022/08/18 07:38:05;;;;;;;22.20;12.70;;;18.80;99.90;;;;;;5026218;28;20033;-39
2022/08/18 07:40:37;;;;;;;20.30;13.38;;;18.90;99.90;;;;;;5024279;28;20522;-40
2022/08/18 07:43:14;;;;;;;28.30;14.30;;;19.00;99.90;;;;;;5023464;28;20051;-40
2022/08/18 07:45:43;;;;;;;21.10;12.85;;;19.10;99.90;;;;;;5025927;28;20048;-41
2022/08/18 07:48:30;;;;;;;25.00;15.43;;;19.40;99.90;;;;;;5025600;28;20052;-40
2022/08/18 07:51:13;;;;;;;25.70;15.45;;;19.60;99.90;;;;;;5024851;28;20041;-40
2022/08/18 07:53:42;;;;;;;20.50;13.25;;;19.70;99.90;;;;;;5025638;28;20041;-40
2022/08/18 07:56:41;;;;;;;17.55;12.93;;;19.90;99.90;;;;;;5026557;28;20048;-37
2022/08/18 07:59:10;;;;;;;25.30;14.20;;;20.10;99.90;;;;;;5021578;28;20038;-40
2022/08/18 08:01:47;;;;;;;15.25;11.05;;;20.10;99.90;;;;;;5026218;28;20037;-39
2022/08/18 08:04:31;;;;;;;13.43;9.57;;;20.00;99.90;;;;;;5023247;28;20029;-39
2022/08/18 08:07:09;;;;;;;22.70;12.30;;;19.90;99.90;;;;;;5025316;28;20033;-39
2022/08/18 08:09:55;;;;;;;29.48;12.95;;;19.80;99.90;;;;;;5025215;28;20048;-39
2022/08/18 08:13:02;;;;;;;48.00;17.17;;;19.60;99.90;;;;;;4986376;28;20129;-39
2022/08/18 08:15:36;;;;;;;90.90;20.80;;;19.50;99.90;;;;;;4957372;28;20113;-40
2022/08/18 08:18:08;;;;;;;17.45;10.23;;;19.40;99.90;;;;;;4985282;28;20093;-40
2022/08/18 08:20:56;;;;;;;26.25;9.88;;;19.40;99.90;;;;;;4985982;28;20397;-40
2022/08/18 08:23:22;;;;;;;31.65;10.73;;;19.40;99.90;;;;;;4985507;28;20128;-41
2022/08/18 08:26:17;;;;;;;33.55;11.30;;;19.40;99.90;;;;;;4985124;28;20512;-41
2022/08/18 08:28:58;;;;;;;24.65;10.98;;;19.40;99.90;;;;;;4961265;28;20488;-40
2022/08/18 08:31:41;;;;;;;16.17;8.27;;;19.40;99.90;;;;;;4985288;28;20050;-41
2022/08/18 08:34:27;;;;;;;18.98;8.68;;;19.30;99.90;;;;;;4984718;28;20467;-40
2022/08/18 08:36:58;;;;;;;10.57;5.72;;;19.30;99.90;;;;;;4980888;28;20101;-44
2022/08/18 08:39:40;;;;;;;11.13;5.70;;;19.40;99.90;;;;;;4981876;28;20043;-42
2022/08/18 08:42:18;;;;;;;17.20;8.35;;;19.50;99.90;;;;;;4983442;28;20125;-32
2022/08/18 08:44:59;;;;;;;15.18;6.93;;;19.60;99.90;;;;;;4984407;28;20043;-32
2022/08/18 08:47:35;;;;;;;15.88;7.22;;;19.70;99.90;;;;;;4984587;28;20042;-34
2022/08/18 08:50:09;;;;;;;17.10;6.57;;;19.80;99.90;;;;;;4985729;28;20129;-34
2022/08/18 08:52:58;;;;;;;12.45;4.63;;;19.90;99.90;;;;;;4986561;28;20054;-34
2022/08/18 08:55:30;;;;;;;13.23;5.35;;;19.90;99.90;;;;;;4985049;28;20608;-34
2022/08/18 08:58:04;;;;;;;14.25;6.85;;;20.00;99.90;;;;;;4985331;28;20384;-35
2022/08/18 09:00:30;;;;;;;12.25;5.35;;;20.10;99.90;;;;;;4987282;28;20093;-34
2022/08/18 09:03:09;;;;;;;17.35;7.25;;;20.20;99.90;;;;;;4988666;28;20109;-35
2022/08/18 09:05:40;;;;;;;12.20;5.30;;;20.20;99.90;;;;;;4987578;28;20042;-35
2022/08/18 09:08:08;;;;;;;8.93;4.05;;;20.20;99.90;;;;;;4988695;28;20453;-34
2022/08/18 09:11:09;;;;;;;13.55;5.85;;;20.30;99.90;;;;;;4999813;28;20440;-33
2022/08/18 09:13:34;;;;;;;15.00;6.47;;;20.50;99.90;;;;;;4992209;28;20053;-34
2022/08/18 09:16:26;;;;;;;13.68;5.35;;;20.50;99.90;;;;;;5025887;28;20044;-35
2022/08/18 09:19:03;;;;;;;13.52;6.75;;;20.50;99.90;;;;;;5007511;28;20476;-34
2022/08/18 09:22:03;;;;;;;15.60;5.45;;;20.50;99.90;;;;;;5026278;28;20041;-35
2022/08/18 09:24:53;;;;;;;14.30;6.00;;;20.50;99.90;;;;;;5027696;28;20037;-34
2022/08/18 09:27:42;;;;;;;14.25;5.72;;;20.50;99.90;;;;;;5028229;28;20132;-37
2022/08/18 09:30:46;;;;;;;8.43;3.50;;;20.60;99.90;;;;;;5025383;28;20073;-34
2022/08/18 09:33:20;;;;;;;9.48;3.83;;;20.70;99.90;;;;;;5016370;28;20462;-34
2022/08/18 09:35:57;;;;;;;14.02;5.30;;;20.80;99.90;;;;;;5027787;28;20041;-35
2022/08/18 09:41:31;;;;;;;11.82;4.25;;;21.00;99.90;;;;;;5026533;28;20102;-35
2022/08/18 09:44:10;;;;;;;10.68;3.50;;;20.90;99.90;;;;;;5027617;28;20045;-35
2022/08/18 09:46:42;;;;;;;8.35;3.70;;;20.80;99.90;;;;;;5009530;28;20045;-34
2022/08/18 09:49:29;;;;;;;9.32;3.30;;;20.80;99.90;;;;;;5027687;28;20128;-35
2022/08/18 09:52:00;;;;;;;8.77;2.83;;;20.80;99.90;;;;;;5027051;28;20093;-36
2022/08/18 09:54:31;;;;;;;8.43;3.05;;;20.90;99.90;;;;;;5026962;28;20406;-35
2022/08/18 09:57:23;;;;;;;8.77;3.50;;;21.10;99.90;;;;;;5027228;28;20086;-35
2022/08/18 09:59:48;;;;;;;9.00;3.73;;;21.20;99.90;;;;;;5027349;28;20041;-35
2022/08/18 10:02:26;;;;;;;8.23;3.20;;;21.30;99.90;;;;;;5027110;28;20915;-34
2022/08/18 10:05:11;;;;;;;7.38;4.05;;;21.30;99.90;;;;;;5027565;28;20559;-36
2022/08/18 10:07:39;;;;;;;8.57;2.58;;;21.40;99.90;;;;;;5027125;28;20107;-35
2022/08/18 10:10:23;;;;;;;4.80;2.78;;;21.40;99.90;;;;;;5026047;28;20048;-35
2022/08/18 10:13:16;;;;;;;8.80;2.85;;;21.60;99.90;;;;;;5025703;28;20510;-34
2022/08/18 10:15:59;;;;;;;5.32;2.90;;;21.60;99.90;;;;;;5026581;28;20498;-34
2022/08/18 10:18:51;;;;;;;7.65;3.05;;;21.50;99.90;;;;;;5026459;28;20045;-33
2022/08/18 10:21:27;;;;;;;4.22;2.45;;;21.40;99.90;;;;;;5007821;28;20037;-33
2022/08/18 10:24:07;;;;;;;10.02;3.17;;;21.30;99.90;;;;;;5021772;28;20076;-34
2022/08/18 10:26:39;;;;;;;8.07;3.40;;;21.10;99.90;;;;;;5024668;28;20106;-34
2022/08/18 10:29:25;;;;;;;9.95;3.78;;;21.00;99.90;;;;;;5027389;28;20062;-33
2022/08/18 10:31:54;;;;;;;4.72;3.30;;;20.90;99.90;;;;;;5013169;28;20152;-34
2022/08/18 10:34:38;;;;;;;5.82;2.50;;;20.90;99.90;;;;;;5025705;28;20059;-33
2022/08/18 10:37:27;;;;;;;6.45;1.95;;;21.00;99.90;;;;;;5027343;28;20052;-34
2022/08/18 10:40:00;;;;;;;4.05;1.75;;;21.10;99.90;;;;;;5026974;28;20502;-34
2022/08/18 10:42:50;;;;;;;5.20;2.08;;;21.20;99.90;;;;;;5027107;28;20034;-34
2022/08/18 10:45:29;;;;;;;4.32;2.10;;;21.30;99.90;;;;;;5027144;28;20041;-34
2022/08/18 10:48:07;;;;;;;5.00;1.88;;;21.40;99.90;;;;;;5027085;28;20044;-34
2022/08/18 10:51:14;;;;;;;5.90;2.55;;;21.60;99.90;;;;;;5027118;28;20120;-34
2022/08/18 10:53:46;;;;;;;7.22;4.45;;;21.60;99.90;;;;;;5009940;28;20136;-34
2022/08/18 10:56:39;;;;;;;11.48;4.72;;;21.60;99.90;;;;;;5008903;28;20091;-35
2022/08/18 10:59:26;;;;;;;5.30;3.35;;;21.60;99.90;;;;;;5027033;28;20037;-34
2022/08/18 11:02:03;;;;;;;5.47;3.10;;;21.50;99.90;;;;;;5025844;28;20040;-33
2022/08/18 11:04:42;;;;;;;3.63;3.05;;;21.40;99.90;;;;;;5026573;28;20056;-33
2022/08/18 11:07:14;;;;;;;5.45;2.72;;;21.30;99.90;;;;;;5025595;28;20049;-33
2022/08/18 11:09:42;;;;;;;8.50;3.22;;;21.20;99.90;;;;;;5027559;28;20154;-33
2022/08/18 11:12:11;;;;;;;6.15;2.97;;;21.20;99.90;;;;;;5026885;28;20458;-36
2022/08/18 11:14:57;;;;;;;7.35;3.58;;;21.20;99.90;;;;;;5027029;28;20199;-34
2022/08/18 11:17:45;;;;;;;9.98;5.10;;;21.20;99.90;;;;;;5025808;28;20111;-34
2022/08/18 11:20:13;;;;;;;7.15;3.90;;;21.40;99.90;;;;;;5026026;28;20048;-33
2022/08/18 11:22:53;;;;;;;8.32;5.03;;;21.50;99.90;;;;;;5026448;28;20522;-36
2022/08/18 11:25:32;;;;;;;9.70;4.35;;;21.60;99.90;;;;;;5026629;28;20063;-34
2022/08/18 11:27:59;;;;;;;6.32;3.83;;;21.80;99.90;;;;;;5026293;28;20088;-36
2022/08/18 11:30:30;;;;;;;7.15;3.50;;;21.90;99.90;;;;;;5026226;28;20492;-34
2022/08/18 11:32:56;;;;;;;5.28;2.40;;;22.10;99.90;;;;;;5026346;28;20041;-34
2022/08/18 11:35:34;;;;;;;6.57;2.60;;;22.30;99.90;;;;;;5026228;28;20340;-34
2022/08/18 11:38:10;;;;;;;4.60;1.80;;;22.30;99.90;;;;;;5026229;28;20140;-33
2022/08/18 11:40:43;;;;;;;4.10;1.92;;;22.40;99.90;;;;;;5026349;28;20048;-33
2022/08/18 11:43:11;;;;;;;4.63;1.98;;;22.50;99.90;;;;;;5025945;28;20120;-34
2022/08/18 11:45:43;;;;;;;6.50;2.15;;;22.50;99.90;;;;;;5026034;28;20041;-35
2022/08/18 11:48:25;;;;;;;3.63;1.80;;;22.50;99.90;;;;;;5026257;28;20041;-34
2022/08/18 11:50:54;;;;;;;6.75;1.70;;;22.60;99.90;;;;;;5025993;28;20052;-34
2022/08/18 11:53:33;;;;;;;5.55;1.27;;;22.60;99.90;;;;;;5025954;28;20041;-34
2022/08/18 11:56:19;;;;;;;4.50;1.60;;;22.80;99.90;;;;;;5026086;28;20071;-33
2022/08/18 11:58:45;;;;;;;4.30;1.38;;;22.90;99.90;;;;;;5026104;28;20074;-34
2022/08/18 12:01:32;;;;;;;4.05;1.75;;;23.10;99.90;;;;;;5026035;28;20038;-33
2022/08/18 12:04:10;;;;;;;5.28;1.30;;;23.10;99.90;;;;;;5024837;28;20652;-33
2022/08/18 12:06:38;;;;;;;6.35;1.85;;;23.20;99.90;;;;;;5026124;28;20037;-35
2022/08/18 12:09:03;;;;;;;4.18;1.63;;;23.30;99.90;;;;;;5025810;28;20044;-34
2022/08/18 12:11:33;;;;;;;3.90;1.30;;;23.50;99.90;;;;;;5025728;28;20092;-34
2022/08/18 12:14:08;;;;;;;6.70;1.63;;;23.70;99.90;;;;;;5026027;28;20053;-34
2022/08/18 12:16:42;;;;;;;4.15;1.20;;;23.80;99.90;;;;;;5026000;28;20037;-34
2022/08/18 12:19:11;;;;;;;5.75;1.35;;;23.70;99.90;;;;;;5025549;28;20048;-34
2022/08/18 12:21:52;;;;;;;3.05;1.00;;;23.50;99.90;;;;;;5025532;28;20045;-34
2022/08/18 12:24:29;;;;;;;5.85;1.48;;;23.50;99.90;;;;;;5025409;28;20160;-33
2022/08/18 12:26:55;;;;;;;4.40;1.50;;;23.60;99.90;;;;;;5025913;28;20489;-34
2022/08/18 12:29:21;;;;;;;4.18;1.15;;;23.50;99.90;;;;;;5025436;28;20045;-33
2022/08/18 12:31:49;;;;;;;9.60;2.08;;;23.30;99.90;;;;;;5023541;28;20038;-34
2022/08/18 12:34:22;;;;;;;3.38;1.40;;;23.20;99.90;;;;;;5027197;28;20038;-34
2022/08/18 12:36:49;;;;;;;5.57;1.58;;;23.10;99.90;;;;;;5019531;28;20367;-34
2022/08/18 12:39:15;;;;;;;6.38;1.30;;;22.90;99.90;;;;;;5026934;28;20033;-34
2022/08/18 12:41:41;;;;;;;4.72;1.60;;;23.00;99.90;;;;;;5028607;28;20037;-33
2022/08/18 12:44:06;;;;;;;4.15;1.15;;;22.90;99.90;;;;;;5028709;28;20040;-35
2022/08/18 12:46:32;;;;;;;3.97;1.42;;;23.00;99.90;;;;;;5028531;28;20041;-34
2022/08/18 12:48:58;;;;;;;3.35;1.55;;;22.90;99.90;;;;;;5028931;28;20045;-34
2022/08/18 12:51:23;;;;;;;6.70;1.45;;;22.70;99.90;;;;;;5028106;28;20041;-35
2022/08/18 12:53:49;;;;;;;4.07;1.17;;;22.70;99.90;;;;;;5028387;28;20037;-34
2022/08/18 12:56:21;;;;;;;3.65;1.23;;;22.60;99.90;;;;;;5026281;28;20116;-33
2022/08/18 12:58:47;;;;;;;;;;;22.50;99.90;;;;;;5029177;28;20046;-34
2022/08/18 13:01:13;;;;;;;3.67;1.00;;;22.40;99.90;;;;;;5028828;28;19971;-34
2022/08/18 13:03:38;;;;;;;3.58;1.00;;;22.30;99.90;;;;;;5027914;28;20407;-34
2022/08/18 13:06:04;;;;;;;4.30;1.65;;;22.30;99.90;;;;;;5025893;28;20037;-35
2022/08/18 13:08:30;;;;;;;4.40;1.25;;;22.20;99.90;;;;;;5028407;28;20036;-33
2022/08/18 13:10:59;;;;;;;3.25;0.88;;;22.20;99.90;;;;;;5028468;28;20060;-33
2022/08/18 13:13:25;;;;;;;4.10;1.30;;;22.30;99.90;;;;;;5028480;28;20050;-33
2022/08/18 13:15:53;;;;;;;2.00;0.75;;;22.20;99.90;;;;;;5029391;28;20041;-34
2022/08/18 13:18:19;;;;;;;4.45;1.23;;;22.10;99.90;;;;;;5029270;28;20073;-33